• Join FlightAware (Why Join?)
  • Login
  • US Flag 
06:44PM EDT


 

Airport Tracker/Info


-or-


 

Live Flight TrackerFlight Track Log ✈ EJA922 ✈ 24-Jul-2013 ✈ KCHO - KBED

Flight Track Log - Related Links

Times and Time Zones

All times are in EDT time to prevent confusion due to time zone crossing. See the EJA922 flight status page for this flight to view local times or setup timezone preferences in your user account.

Time Position Orientation Groundspeed Altitude Reporting Facility
EDT Latitude Longitude Course Direction KTS MPH feet Rate Location/Type
10:04AM 38.2511 -78.3892 65° Northeast 269 310 6,200  Level Washington Center
10:05AM 38.2844 -78.2978 65° Northeast 356 410 7,000 840 Climbing Washington Center
10:06AM 38.2975 -78.1897 81° East 329 379 7,900 960 Climbing Washington Center
10:07AM 38.2914 -78.0836 94° East 304 350 9,000 600 Climbing Washington Center
10:08AM 38.2125 -78.0547 164° South 234 269 9,200 1,080 Climbing Washington Center
10:09AM 38.1256 -78.0333 169° South 262 302 11,200 2,040 Climbing Washington Center
10:10AM 38.0519 -77.9597 142° Southeast 312 359 13,400 2,040 Climbing Washington Center
10:11AM 38.1064 -77.8400 60° Northeast 262 302 15,400 1,980 Climbing Washington Center
10:12AM 38.1772 -77.7233 52° Northeast 336 387 17,400 2,100 Climbing Washington Center
10:13AM 38.2397 -77.6114 55° Northeast 384 442 19,600 2,100 Climbing Washington Center
10:14AM 38.3083 -77.4889 54° Northeast 409 471 21,700 2,040 Climbing Washington Center
10:15AM 38.3750 -77.3636 56° Northeast 427 491 23,800 2,100 Climbing Washington Center
10:16AM 38.4456 -77.2325 55° Northeast 427 491 25,900 2,100 Climbing Washington Center
10:17AM 38.5161 -77.1069 54° Northeast 432 497 28,000 1,800 Climbing Washington Center
10:18AM 38.5886 -76.9756 55° Northeast 438 504 29,600 1,440 Climbing Washington Center
10:19AM 38.6672 -76.8386 54° Northeast 452 520 31,000 660 Climbing Washington Center
10:20AM 38.7478 -76.6908 55° Northeast 487 560 31,000  Level Washington Center
10:21AM 38.8325 -76.5350 55° Northeast 516 594 31,000  Level Washington Center
10:22AM 38.9233 -76.3708 55° Northeast 542 624 31,000  Level Washington Center
10:23AM 39.0119 -76.2086 55° Northeast 550 633 31,000  Level Washington Center
10:24AM 39.1128 -76.0278 54° Northeast 557 641 31,000  Level Washington Center
10:25AM 39.2089 -75.8647 53° Northeast 557 641 31,000  Level Washington Center
10:26AM 39.3197 -75.7150 46° Northeast 563 648 31,000  Level Washington Center
10:27AM 39.4303 -75.5728 45° Northeast 563 648 31,000  Level Washington Center
10:28AM 39.5383 -75.4328 45° Northeast 557 641 31,000  Level Washington Center
10:29AM 39.6464 -75.2925 45° Northeast 547 629 31,000  Level Washington Center
10:30AM 39.7733 -75.1058 48° Northeast 534 615 31,000  Level New York Center
10:31AM 39.8722 -74.9661 47° Northeast 534 615 31,000  Level New York Center
10:32AM 39.9753 -74.8206 47° Northeast 534 615 31,000  Level New York Center
10:33AM 40.0703 -74.6578 53° Northeast 556 640 31,000  Level New York Center
10:34AM 40.1678 -74.4814 54° Northeast 570 656 31,000  Level New York Center
10:35AM 40.2606 -74.3067 55° Northeast 591 680 31,000  Level New York Center
10:36AM 40.3556 -74.1292 55° Northeast 591 680 31,000 -240 Level New York Center
10:37AM 40.4500 -73.9511 55° Northeast 591 680 30,600 -1,800 Descending New York Center
10:38AM 40.5442 -73.7833 54° Northeast 591 680 27,500 -2,220 Descending New York Center
10:41AM 40.7394 -73.4017 56° Northeast 548 631 23,000 -1,320 Descending Boston Center
10:42AM 40.8408 -73.2439 50° Northeast 518 596 23,000 -720 Level Boston Center
10:43AM 40.9436 -73.1297 40° Northeast 490 564 21,600 -1,920 Descending Boston Center
10:44AM 41.0486 -73.0097 41° Northeast 490 564 19,200 -2,280 Descending Boston Center
10:45AM 41.1469 -72.8922 42° Northeast 485 558 17,100 -2,100 Descending Boston Center
10:46AM 41.2411 -72.7825 41° Northeast 464 534 15,100 -1,080 Descending Boston Center
10:47AM 41.3311 -72.6917 37° Northeast 452 520 15,000 -60 Descending Boston Center
10:48AM 41.4583 -72.6311 20° North 441 507 15,000  Level Boston Center
10:49AM 41.5519 -72.5872 19° North 441 507 15,000 -300 Level Boston Center
10:50AM 41.6708 -72.5150 24° Northeast 440 506 14,500 -1,200 Descending Boston Center
10:51AM 41.7711 -72.4067 39° Northeast 431 496 12,700 -1,680 Descending Boston Center
10:52AM 41.8814 -72.2894 38° Northeast 424 488 10,800 -1,440 Descending Boston Center
10:53AM 41.9500 -72.2028 43° Northeast 306 352 9,700 -1,440 Descending Boston Center
10:54AM 42.0186 -72.1439 33° Northeast 293 337 7,900 -1,080 Descending Boston Center
10:55AM 42.0831 -72.0708 40° Northeast 297 342 7,600 -1,140 Descending Boston Center
10:56AM 42.1453 -72.0006 40° Northeast 298 343 5,700 -1,740 Descending Boston Center
10:56AM 42.1453 -72.0006 40° Northeast 290 334 5,800 -720 Climbing Boston Center
10:57AM 42.2117 -71.9244 40° Northeast 285 328 5,000 -420 Descending Boston Center
10:58AM 42.2675 -71.8539 43° Northeast 290 334 5,000  Level Boston Center
10:59AM 42.3256 -71.7661 48° Northeast 285 328 5,000  Level Boston Center
11:00AM 42.3603 -71.6731 63° Northeast 285 328 5,000 -480 Level Boston Center
11:01AM 42.4014 -71.5967 54° Northeast 279 321 4,100 -840 Descending Boston Center
11:02AM 42.4500 -71.4833 60° Northeast 280 322 3,200 -960 Descending KA90
11:03AM 42.5000 -71.4000 51° Northeast 270 311 2,100 -720 Descending KA90
11:04AM 42.5167 -71.3167 75° East 224 258 1,800 -240 Descending KA90
11:05AM 42.5000 -71.2333 105° East 194 223 1,700 -240 Descending KA90
11:06AM 42.4667 -71.2167 160° South 147 169 1,300 -600 Descending KA90
11:07AM 42.4667 -71.2500 270° West 131 151 500 -840 Descending KA90
11:10AM 42.4667 -71.2833 228° Southwest  Level FlightAware Approximate